createdAt,value
2017-11-11T00:00:22.162Z,2.80
2017-11-11T00:02:50.444Z,2.80
2017-11-11T00:05:18.755Z,2.80
2017-11-11T00:07:47.807Z,2.90
2017-11-11T00:10:16.113Z,2.80
2017-11-11T00:12:44.407Z,2.90
2017-11-11T00:15:12.727Z,2.90
2017-11-11T00:17:41.006Z,2.90
2017-11-11T00:20:09.292Z,2.90
2017-11-11T00:22:37.654Z,2.90
2017-11-11T00:25:05.999Z,2.90
2017-11-11T00:27:34.315Z,2.80
2017-11-11T00:30:03.380Z,2.70
2017-11-11T00:32:31.676Z,2.70
2017-11-11T00:34:59.985Z,2.70
2017-11-11T00:37:28.278Z,2.60
2017-11-11T00:39:56.551Z,2.70
2017-11-11T00:42:24.895Z,2.60
2017-11-11T00:44:53.196Z,2.60
2017-11-11T00:47:21.555Z,2.50
2017-11-11T00:49:49.882Z,2.50
2017-11-11T00:52:18.284Z,2.50
2017-11-11T00:54:46.577Z,2.50
2017-11-11T00:57:14.851Z,2.50
2017-11-11T00:59:43.143Z,2.50
2017-11-11T01:02:11.437Z,2.50
2017-11-11T01:04:39.764Z,2.50
2017-11-11T01:07:08.852Z,2.50
2017-11-11T01:09:37.148Z,2.50
2017-11-11T01:12:06.375Z,2.50
2017-11-11T01:14:35.468Z,2.60
2017-11-11T01:17:03.783Z,2.60
2017-11-11T01:19:32.078Z,2.60
2017-11-11T01:22:00.388Z,2.60
2017-11-11T01:24:28.667Z,2.60
2017-11-11T01:26:56.984Z,2.60
2017-11-11T01:29:25.280Z,2.60
2017-11-11T01:31:53.692Z,2.70
2017-11-11T01:34:21.980Z,2.70
2017-11-11T01:36:50.265Z,2.80
2017-11-11T01:39:18.572Z,2.80
2017-11-11T01:41:47.631Z,2.80
2017-11-11T01:44:15.951Z,2.80
2017-11-11T01:46:44.246Z,2.80
2017-11-11T01:51:46.993Z,2.80
2017-11-11T01:54:15.284Z,2.70
2017-11-11T01:56:43.616Z,2.40
2017-11-11T01:59:11.906Z,2.10
2017-11-11T02:01:40.204Z,1.90
2017-11-11T02:04:08.536Z,1.80
2017-11-11T02:06:37.588Z,2.00
2017-11-11T02:09:05.928Z,1.90
2017-11-11T02:11:34.241Z,2.10
2017-11-11T02:14:02.542Z,2.10
2017-11-11T02:16:30.852Z,2.10
2017-11-11T02:18:59.140Z,1.90
2017-11-11T02:21:27.469Z,1.80
2017-11-11T02:23:56.515Z,1.80
2017-11-11T02:26:24.847Z,1.80
2017-11-11T02:28:53.918Z,1.90
2017-11-11T02:31:22.228Z,1.90
2017-11-11T02:33:50.532Z,2.00
2017-11-11T02:36:18.906Z,2.00
2017-11-11T02:38:47.269Z,2.00
2017-11-11T02:41:15.604Z,2.10
2017-11-11T02:43:44.709Z,2.20
2017-11-11T02:46:13.009Z,2.20
2017-11-11T02:48:42.058Z,2.30
2017-11-11T02:51:10.365Z,2.30
2017-11-11T02:53:38.661Z,2.30
2017-11-11T02:56:06.984Z,2.40
2017-11-11T02:58:36.095Z,2.40
2017-11-11T03:01:04.415Z,2.40
2017-11-11T03:03:32.775Z,2.50
2017-11-11T03:06:01.158Z,2.50
2017-11-11T03:08:30.267Z,2.50
2017-11-11T03:10:58.662Z,2.50
2017-11-11T03:13:27.766Z,2.50
2017-11-11T03:15:56.846Z,2.50
2017-11-11T03:18:25.149Z,2.50
2017-11-11T03:20:53.439Z,2.50
2017-11-11T03:23:21.733Z,2.30
2017-11-11T03:25:50.025Z,2.30
2017-11-11T03:28:18.313Z,2.30
2017-11-11T03:30:46.625Z,2.30
2017-11-11T03:33:14.918Z,2.20
2017-11-11T03:35:43.244Z,2.10
2017-11-11T03:38:11.520Z,1.80
2017-11-11T03:40:39.840Z,1.80
2017-11-11T03:43:08.140Z,1.80
2017-11-11T03:45:36.446Z,1.80
2017-11-11T03:48:04.793Z,1.80
2017-11-11T03:50:33.080Z,1.90
2017-11-11T03:53:01.388Z,1.90
2017-11-11T03:55:29.977Z,2.00
2017-11-11T03:57:58.289Z,2.00
2017-11-11T04:00:27.361Z,2.10
2017-11-11T04:02:55.706Z,2.10
2017-11-11T04:05:23.988Z,2.20
2017-11-11T04:07:52.277Z,2.20
2017-11-11T04:10:21.344Z,2.30
2017-11-11T04:12:49.640Z,2.30
2017-11-11T04:15:17.952Z,2.40
2017-11-11T04:17:47.007Z,2.50
2017-11-11T04:20:15.299Z,2.50
2017-11-11T04:22:43.597Z,2.50
2017-11-11T04:25:11.900Z,2.60
2017-11-11T04:27:40.196Z,2.60
2017-11-11T04:30:08.523Z,2.60
2017-11-11T04:32:36.850Z,2.60
2017-11-11T04:35:05.167Z,2.60
2017-11-11T04:37:33.469Z,2.60
2017-11-11T04:40:02.531Z,2.60
2017-11-11T04:42:30.856Z,2.60
2017-11-11T04:44:59.140Z,2.70
2017-11-11T04:47:27.457Z,2.70
2017-11-11T04:49:56.511Z,2.70
2017-11-11T04:52:24.822Z,2.70
2017-11-11T04:54:53.225Z,2.70
2017-11-11T04:57:21.544Z,2.70
2017-11-11T04:59:49.821Z,2.70
2017-11-11T05:02:18.901Z,2.80
2017-11-11T05:04:47.175Z,2.80
2017-11-11T05:07:15.468Z,2.80
2017-11-11T05:09:43.747Z,2.80
2017-11-11T05:12:12.046Z,2.80
2017-11-11T05:14:40.434Z,2.80
2017-11-11T05:17:08.754Z,2.80
2017-11-11T05:19:37.867Z,2.80
2017-11-11T05:22:06.180Z,2.80
2017-11-11T05:24:34.519Z,2.80
2017-11-11T05:27:02.856Z,2.80
2017-11-11T05:29:31.139Z,2.90
2017-11-11T05:31:59.428Z,2.80
2017-11-11T05:34:27.714Z,2.90
2017-11-11T05:36:56.032Z,2.80
2017-11-11T05:39:24.325Z,2.90
2017-11-11T05:41:52.654Z,2.80
2017-11-11T05:44:20.944Z,2.90
2017-11-11T05:46:49.247Z,2.90
2017-11-11T05:49:18.303Z,2.90
2017-11-11T05:51:46.608Z,2.90
2017-11-11T05:54:15.138Z,2.90
2017-11-11T05:56:44.212Z,2.90
2017-11-11T05:59:12.548Z,2.90
2017-11-11T06:01:40.869Z,2.90
2017-11-11T06:04:09.183Z,2.90
2017-11-11T06:06:37.521Z,2.90
2017-11-11T06:09:05.852Z,2.90
2017-11-11T06:11:34.152Z,2.90
2017-11-11T06:14:02.494Z,2.90
2017-11-11T06:16:30.786Z,2.90
2017-11-11T06:18:59.213Z,2.90
2017-11-11T06:21:27.507Z,3.00
2017-11-11T06:23:55.794Z,2.90
2017-11-11T06:26:24.075Z,2.90
2017-11-11T06:28:52.396Z,2.90
2017-11-11T06:31:21.480Z,2.90
2017-11-11T06:33:49.768Z,2.90
2017-11-11T06:36:18.089Z,3.00
2017-11-11T06:38:47.145Z,2.90
2017-11-11T06:41:15.437Z,2.90
2017-11-11T06:43:43.738Z,2.90
2017-11-11T06:46:12.095Z,2.90
2017-11-11T06:48:40.442Z,2.90
2017-11-11T06:51:08.743Z,2.90
2017-11-11T06:53:37.821Z,2.90
2017-11-11T06:56:06.574Z,2.90
2017-11-11T06:58:34.881Z,2.90
2017-11-11T07:01:04.080Z,3.00
2017-11-11T07:03:32.370Z,2.90
2017-11-11T07:06:00.665Z,3.00
2017-11-11T07:08:28.959Z,2.90
2017-11-11T07:10:57.271Z,3.00
2017-11-11T07:13:25.584Z,3.00
2017-11-11T07:15:54.653Z,2.90
2017-11-11T07:18:22.955Z,2.90
2017-11-11T07:20:51.260Z,2.90
2017-11-11T07:23:19.553Z,2.90
2017-11-11T07:25:47.846Z,2.90
2017-11-11T07:28:16.136Z,2.90
2017-11-11T07:30:45.192Z,2.90
2017-11-11T07:33:13.525Z,2.90
2017-11-11T07:35:42.044Z,2.90
2017-11-11T07:38:10.381Z,2.90
2017-11-11T07:40:38.722Z,2.90
2017-11-11T07:43:07.050Z,2.90
2017-11-11T07:45:35.360Z,2.90
2017-11-11T07:48:03.657Z,2.80
2017-11-11T07:50:32.881Z,2.80
2017-11-11T07:53:01.185Z,2.80
2017-11-11T07:55:29.459Z,2.90
2017-11-11T07:57:58.521Z,2.90
2017-11-11T08:00:26.831Z,2.90
2017-11-11T08:02:55.131Z,2.90
2017-11-11T08:05:23.455Z,2.90
2017-11-11T08:07:52.566Z,2.80
2017-11-11T08:10:21.139Z,2.80
2017-11-11T08:12:49.441Z,2.70
2017-11-11T08:15:18.952Z,2.60
2017-11-11T08:17:47.244Z,2.40
2017-11-11T08:20:16.316Z,2.30
2017-11-11T08:22:44.600Z,2.20
2017-11-11T08:25:12.888Z,2.20
2017-11-11T08:27:41.164Z,2.30
2017-11-11T08:30:09.480Z,2.30
2017-11-11T08:32:37.927Z,2.30
2017-11-11T08:35:06.273Z,2.40
2017-11-11T08:37:35.371Z,2.40
2017-11-11T08:40:03.704Z,2.40
2017-11-11T08:42:32.013Z,2.50
2017-11-11T08:45:00.301Z,2.60
2017-11-11T08:47:28.583Z,2.60
2017-11-11T08:49:56.868Z,2.60
2017-11-11T08:52:25.203Z,2.60
2017-11-11T08:54:53.510Z,2.60
2017-11-11T08:57:22.704Z,2.60
2017-11-11T08:59:50.998Z,2.60
2017-11-11T09:02:19.290Z,2.60
2017-11-11T09:04:47.629Z,2.60
2017-11-11T09:07:15.919Z,2.70
2017-11-11T09:09:44.251Z,2.70
2017-11-11T09:12:12.586Z,2.70
2017-11-11T09:14:40.889Z,2.70
2017-11-11T09:17:09.188Z,2.70
2017-11-11T09:19:37.492Z,2.70
2017-11-11T09:22:05.827Z,2.70
2017-11-11T09:24:34.151Z,2.70
2017-11-11T09:27:02.460Z,2.70
2017-11-11T09:29:30.791Z,2.80
2017-11-11T09:31:59.895Z,2.90
2017-11-11T09:34:28.976Z,3.10
2017-11-11T09:36:57.308Z,3.10
2017-11-11T09:39:25.590Z,3.20
2017-11-11T09:41:53.909Z,3.40
2017-11-11T09:44:22.199Z,3.40
2017-11-11T09:46:50.492Z,3.40
2017-11-11T09:49:18.815Z,3.40
2017-11-11T09:51:47.311Z,3.40
2017-11-11T09:54:15.603Z,3.40
2017-11-11T09:56:44.671Z,3.40
2017-11-11T09:59:13.003Z,3.40
2017-11-11T10:01:42.107Z,3.50
2017-11-11T10:04:11.247Z,3.70
2017-11-11T10:06:39.598Z,3.70
2017-11-11T10:09:07.888Z,3.80
2017-11-11T10:11:36.238Z,3.90
2017-11-11T10:14:04.559Z,3.90
2017-11-11T10:16:32.904Z,3.80
2017-11-11T10:19:02.019Z,3.60
2017-11-11T10:21:30.333Z,3.60
2017-11-11T10:23:58.637Z,3.50
2017-11-11T10:26:26.926Z,3.60
2017-11-11T10:28:55.216Z,3.70
2017-11-11T10:31:23.523Z,3.90
2017-11-11T10:33:51.852Z,4.00
2017-11-11T10:36:20.148Z,4.00
2017-11-11T10:38:48.580Z,4.00
2017-11-11T10:41:16.879Z,4.00
2017-11-11T10:43:45.421Z,3.90
2017-11-11T10:46:13.712Z,3.90
2017-11-11T10:48:42.052Z,3.90
2017-11-11T10:51:10.353Z,3.90
2017-11-11T10:53:39.547Z,3.90
2017-11-11T10:56:07.877Z,3.90
2017-11-11T10:58:36.209Z,3.90
2017-11-11T11:01:04.714Z,3.80
2017-11-11T11:03:33.025Z,3.90
2017-11-11T11:06:01.388Z,4.00
2017-11-11T11:08:29.787Z,4.00
2017-11-11T11:10:58.083Z,4.10
2017-11-11T11:13:26.420Z,4.10
2017-11-11T11:15:54.742Z,4.10
2017-11-11T11:18:23.150Z,4.10
2017-11-11T11:20:51.451Z,4.10
2017-11-11T11:23:19.740Z,4.10
2017-11-11T11:25:48.786Z,4.10
2017-11-11T11:28:17.071Z,4.10
2017-11-11T11:30:45.382Z,4.00
2017-11-11T11:33:13.671Z,3.90
2017-11-11T11:35:42.020Z,3.80
2017-11-11T11:38:10.316Z,3.80
2017-11-11T11:40:38.613Z,3.70
2017-11-11T11:43:06.921Z,3.80
2017-11-11T11:45:35.256Z,3.80
2017-11-11T11:48:04.361Z,3.80
2017-11-11T11:50:32.640Z,3.70
2017-11-11T11:53:00.951Z,3.70
2017-11-11T11:55:30.006Z,3.60
2017-11-11T11:57:58.334Z,3.60
2017-11-11T12:00:27.403Z,3.50
2017-11-11T12:02:55.680Z,3.50
2017-11-11T12:05:23.971Z,3.50
2017-11-11T12:07:52.251Z,3.50
2017-11-11T12:10:20.553Z,3.40
2017-11-11T12:12:48.875Z,3.30
2017-11-11T12:15:17.170Z,3.30
2017-11-11T12:17:45.489Z,3.30
2017-11-11T12:20:13.788Z,3.30
2017-11-11T12:22:42.139Z,3.30
2017-11-11T12:25:10.474Z,3.30
2017-11-11T12:27:38.768Z,3.30
2017-11-11T12:30:07.054Z,3.20
2017-11-11T12:32:35.372Z,3.20
2017-11-11T12:35:03.897Z,3.20
2017-11-11T12:37:32.953Z,3.10
2017-11-11T12:40:01.361Z,3.10
2017-11-11T12:42:29.648Z,3.10
2017-11-11T12:44:57.967Z,3.10
2017-11-11T12:47:26.288Z,3.10
2017-11-11T12:49:54.620Z,3.00
2017-11-11T12:52:22.940Z,3.00
2017-11-11T12:54:52.028Z,3.00
2017-11-11T12:57:20.313Z,3.00
2017-11-11T12:59:48.627Z,3.00
2017-11-11T13:02:17.676Z,2.90
2017-11-11T13:04:45.969Z,2.90
2017-11-11T13:07:14.272Z,2.90
2017-11-11T13:09:42.799Z,2.90
2017-11-11T13:12:11.109Z,2.90
2017-11-11T13:14:40.165Z,2.90
2017-11-11T13:17:08.505Z,2.90
2017-11-11T13:19:36.879Z,2.90
2017-11-11T13:22:05.965Z,2.90
2017-11-11T13:24:34.426Z,2.90
2017-11-11T13:27:02.805Z,3.00
2017-11-11T13:29:31.089Z,3.00
2017-11-11T13:31:59.369Z,3.00
2017-11-11T13:34:28.428Z,3.10
2017-11-11T13:36:56.754Z,3.10
2017-11-11T13:39:25.806Z,3.00
2017-11-11T13:41:54.218Z,3.00
2017-11-11T13:44:22.506Z,3.10
2017-11-11T13:46:50.787Z,3.10
2017-11-11T13:49:19.095Z,3.10
2017-11-11T13:51:47.542Z,3.10
2017-11-11T13:54:15.899Z,3.10
2017-11-11T13:56:44.956Z,3.00
2017-11-11T13:59:13.293Z,3.00
2017-11-11T14:01:42.356Z,3.00
2017-11-11T14:04:10.705Z,3.00
2017-11-11T14:06:39.824Z,3.00
2017-11-11T14:09:08.132Z,3.00
2017-11-11T14:11:36.461Z,2.90
2017-11-11T14:16:57.496Z,2.90
2017-11-11T14:19:25.777Z,2.90
2017-11-11T14:21:54.077Z,3.00
2017-11-11T14:24:22.375Z,3.00
2017-11-11T14:26:50.733Z,3.00
2017-11-11T14:29:19.043Z,3.00
2017-11-11T14:31:47.332Z,3.10
2017-11-11T14:34:15.674Z,3.00
2017-11-11T14:36:44.736Z,3.20
2017-11-11T14:39:13.014Z,3.10
2017-11-11T14:41:41.295Z,3.20
2017-11-11T14:44:09.591Z,3.20
2017-11-11T14:46:37.887Z,3.20
2017-11-11T14:49:06.252Z,3.20
2017-11-11T14:51:34.529Z,3.20
2017-11-11T14:54:02.850Z,3.20
2017-11-11T14:56:31.163Z,3.30
2017-11-11T14:58:59.489Z,3.30
2017-11-11T15:01:27.801Z,3.20
2017-11-11T15:03:56.092Z,3.20
2017-11-11T15:06:24.387Z,3.20
2017-11-11T15:08:52.672Z,3.20
2017-11-11T15:11:20.951Z,3.20
2017-11-11T15:13:49.261Z,3.20
2017-11-11T15:16:17.564Z,3.30
2017-11-11T15:18:45.880Z,3.20
2017-11-11T15:21:14.955Z,3.10
2017-11-11T15:23:43.277Z,3.10
2017-11-11T15:26:12.348Z,3.10
2017-11-11T15:28:40.678Z,3.10
2017-11-11T15:31:09.772Z,3.20
2017-11-11T15:33:38.069Z,3.10
2017-11-11T15:36:07.176Z,3.20
2017-11-11T15:38:36.266Z,3.20
2017-11-11T15:41:04.592Z,3.20
2017-11-11T15:43:32.903Z,3.20
2017-11-11T15:46:02.936Z,3.20
2017-11-11T15:48:31.991Z,3.20
2017-11-11T15:51:01.089Z,3.20
2017-11-11T15:53:30.144Z,3.20
2017-11-11T15:55:59.526Z,3.20
2017-11-11T15:58:28.605Z,3.20
2017-11-11T16:00:56.919Z,3.20
2017-11-11T16:03:26.035Z,3.20
2017-11-11T16:05:54.316Z,3.20
2017-11-11T16:08:23.492Z,3.30
2017-11-11T16:10:52.019Z,3.20
2017-11-11T16:13:21.074Z,3.20
2017-11-11T16:15:49.407Z,3.20
2017-11-11T16:18:17.697Z,3.30
2017-11-11T16:20:46.767Z,3.20
2017-11-11T16:23:15.055Z,3.20
2017-11-11T16:25:43.345Z,3.20
2017-11-11T16:28:11.654Z,3.20
2017-11-11T16:30:39.982Z,3.30
2017-11-11T16:33:08.346Z,3.20
2017-11-11T16:35:36.649Z,3.20
2017-11-11T16:38:05.027Z,3.30
2017-11-11T16:40:33.345Z,3.30
2017-11-11T16:43:01.632Z,3.30
2017-11-11T16:45:29.923Z,3.20
2017-11-11T16:47:58.222Z,3.10
2017-11-11T16:50:26.504Z,3.00
2017-11-11T16:52:54.816Z,3.00
2017-11-11T16:55:23.159Z,2.90
2017-11-11T16:57:52.210Z,2.80
2017-11-11T17:00:20.520Z,2.80
2017-11-11T17:02:48.815Z,2.70
2017-11-11T17:05:17.129Z,2.70
2017-11-11T17:07:45.414Z,2.60
2017-11-11T17:10:13.777Z,2.60
2017-11-11T17:12:42.148Z,2.50
2017-11-11T17:15:10.443Z,2.50
2017-11-11T17:17:38.756Z,2.50
2017-11-11T17:20:07.065Z,2.50
2017-11-11T17:22:36.166Z,2.50
2017-11-11T17:25:05.264Z,2.50
2017-11-11T17:27:33.555Z,2.50
2017-11-11T17:30:01.847Z,2.50
2017-11-11T17:32:30.212Z,2.50
2017-11-11T17:34:58.526Z,2.50
2017-11-11T17:37:26.840Z,2.50
2017-11-11T17:39:55.897Z,2.50
2017-11-11T17:42:24.207Z,2.50
2017-11-11T17:44:52.485Z,2.50
2017-11-11T17:47:20.778Z,2.50
2017-11-11T17:49:49.105Z,2.50
2017-11-11T17:52:18.200Z,2.50
2017-11-11T17:54:47.261Z,2.50
2017-11-11T17:57:15.547Z,2.50
2017-11-11T17:59:43.834Z,2.50
2017-11-11T18:02:12.180Z,2.50
2017-11-11T18:04:41.242Z,2.60
2017-11-11T18:07:09.582Z,2.60
2017-11-11T18:09:38.644Z,2.60
2017-11-11T18:12:07.058Z,2.60
2017-11-11T18:14:35.379Z,2.60
2017-11-11T18:17:03.734Z,2.60
2017-11-11T18:19:32.053Z,2.60
2017-11-11T18:22:01.134Z,2.60
2017-11-11T18:24:29.415Z,2.60
2017-11-11T18:26:57.739Z,2.50
2017-11-11T18:29:31.018Z,2.60
2017-11-11T18:32:01.263Z,2.60
2017-11-11T18:34:30.321Z,2.60
2017-11-11T18:36:58.589Z,2.60
2017-11-11T18:39:26.898Z,2.60
2017-11-11T18:41:55.171Z,2.60
2017-11-11T18:44:23.463Z,2.50
2017-11-11T18:46:51.755Z,2.50
2017-11-11T18:49:20.033Z,2.60
2017-11-11T18:51:48.359Z,2.60
2017-11-11T18:54:16.756Z,2.60
2017-11-11T18:56:45.041Z,2.60
2017-11-11T18:59:13.336Z,2.60
2017-11-11T19:01:41.678Z,2.60
2017-11-11T19:04:10.016Z,2.60
2017-11-11T19:06:38.335Z,2.60
2017-11-11T19:09:07.429Z,2.60
2017-11-11T19:11:36.151Z,2.60
2017-11-11T19:14:04.489Z,2.60
2017-11-11T19:16:32.811Z,2.60
2017-11-11T19:19:01.897Z,2.60
2017-11-11T19:21:30.261Z,2.60
2017-11-11T19:23:58.600Z,2.60
2017-11-11T19:26:27.655Z,2.70
2017-11-11T19:28:55.984Z,2.70
2017-11-11T19:31:24.277Z,2.70
2017-11-11T19:33:52.587Z,2.70
2017-11-11T19:36:21.645Z,2.70
2017-11-11T19:38:49.985Z,2.60
2017-11-11T19:41:18.297Z,2.70
2017-11-11T19:43:46.588Z,2.70
2017-11-11T19:46:14.885Z,2.70
2017-11-11T19:48:43.203Z,2.80
2017-11-11T19:51:11.491Z,2.80
2017-11-11T19:53:39.812Z,2.70
2017-11-11T19:56:08.905Z,2.70
2017-11-11T19:58:37.213Z,2.70
2017-11-11T20:01:06.363Z,2.70
2017-11-11T20:03:34.706Z,2.70
2017-11-11T20:06:03.757Z,2.70
2017-11-11T20:08:32.070Z,2.70
2017-11-11T20:11:00.359Z,2.70
2017-11-11T20:13:28.661Z,2.70
2017-11-11T20:15:56.950Z,2.70
2017-11-11T20:18:25.249Z,2.70
2017-11-11T20:20:54.317Z,2.70
2017-11-11T20:23:23.499Z,2.70
2017-11-11T20:25:51.791Z,2.70
2017-11-11T20:28:20.101Z,2.70
2017-11-11T20:30:48.384Z,2.70
2017-11-11T20:33:16.701Z,2.70
2017-11-11T20:35:45.006Z,2.70
2017-11-11T20:38:13.307Z,2.70
2017-11-11T20:40:42.383Z,2.70
2017-11-11T20:43:10.675Z,2.70
2017-11-11T20:45:39.152Z,2.70
2017-11-11T20:48:07.575Z,2.70
2017-11-11T20:50:35.942Z,2.70
2017-11-11T20:53:04.297Z,2.70
2017-11-11T20:55:32.588Z,2.70
2017-11-11T20:58:00.888Z,2.70
2017-11-11T21:00:29.185Z,2.70
2017-11-11T21:02:57.469Z,2.70
2017-11-11T21:05:25.897Z,2.70
2017-11-11T21:07:54.180Z,2.70
2017-11-11T21:10:22.455Z,2.70
2017-11-11T21:12:50.744Z,2.70
2017-11-11T21:15:19.032Z,2.80
2017-11-11T21:17:47.365Z,2.80
2017-11-11T21:20:16.451Z,2.60
2017-11-11T21:22:45.541Z,2.70
2017-11-11T21:25:14.681Z,2.70
2017-11-11T21:27:43.023Z,2.60
2017-11-11T21:30:11.409Z,2.70
2017-11-11T21:32:39.775Z,2.70
2017-11-11T21:35:08.124Z,2.80
2017-11-11T21:37:36.498Z,2.70
2017-11-11T21:40:05.190Z,2.70
2017-11-11T21:42:33.730Z,2.70
2017-11-11T21:45:02.892Z,2.70
2017-11-11T21:47:31.213Z,2.70
2017-11-11T21:49:59.675Z,2.70
2017-11-11T21:52:28.548Z,2.60
2017-11-11T21:54:56.891Z,2.60
2017-11-11T21:57:25.952Z,2.70
2017-11-11T21:59:54.240Z,2.70
2017-11-11T22:02:22.532Z,2.70
2017-11-11T22:04:50.824Z,2.80
2017-11-11T22:07:19.116Z,2.80
2017-11-11T22:09:47.436Z,2.70
2017-11-11T22:12:15.731Z,2.70
2017-11-11T22:14:44.061Z,2.70
2017-11-11T22:17:12.360Z,2.70
2017-11-11T22:19:40.660Z,2.70
2017-11-11T22:22:08.975Z,2.60
2017-11-11T22:24:38.218Z,2.70
2017-11-11T22:27:07.292Z,2.60
2017-11-11T22:29:35.606Z,2.60
2017-11-11T22:32:04.728Z,2.70
2017-11-11T22:34:33.030Z,2.70
2017-11-11T22:37:01.339Z,2.70
2017-11-11T22:39:29.623Z,2.70
2017-11-11T22:41:57.940Z,2.70
2017-11-11T22:44:26.231Z,2.70
2017-11-11T22:46:54.509Z,2.70
2017-11-11T22:49:22.791Z,2.60
2017-11-11T22:51:51.074Z,2.70
2017-11-11T22:54:19.405Z,2.70
2017-11-11T22:56:47.707Z,2.70
2017-11-11T22:59:16.755Z,2.70
2017-11-11T23:01:45.068Z,2.60
2017-11-11T23:04:13.384Z,2.60
2017-11-11T23:06:42.456Z,2.60
2017-11-11T23:09:10.757Z,2.50
2017-11-11T23:11:39.072Z,2.50
2017-11-11T23:14:08.169Z,2.50
2017-11-11T23:16:36.451Z,2.50
2017-11-11T23:19:04.780Z,2.50
2017-11-11T23:21:33.061Z,2.50
2017-11-11T23:24:01.347Z,2.50
2017-11-11T23:26:29.635Z,2.50
2017-11-11T23:28:57.919Z,2.50
2017-11-11T23:31:27.009Z,2.40
2017-11-11T23:33:55.291Z,2.40
2017-11-11T23:36:23.564Z,2.40
2017-11-11T23:38:51.859Z,2.30
2017-11-11T23:41:20.148Z,2.30
2017-11-11T23:43:48.458Z,2.30
2017-11-11T23:46:17.503Z,2.30
2017-11-11T23:48:45.805Z,2.30
2017-11-11T23:51:14.085Z,2.30
2017-11-11T23:53:42.389Z,2.30
2017-11-11T23:56:10.725Z,2.20
2017-11-11T23:58:39.802Z,2.30
